createdAt,value
2022-11-06T00:00:09.100Z,6.47
2022-11-06T00:05:27.841Z,6.57
2022-11-06T00:10:31.881Z,6.07
2022-11-06T00:15:32.917Z,6.72
2022-11-06T00:20:33.713Z,6.75
2022-11-06T00:25:36.218Z,6.20
2022-11-06T00:30:37.210Z,6.97
2022-11-06T00:35:38.925Z,7.15
2022-11-06T00:40:41.087Z,6.65
2022-11-06T00:45:41.900Z,6.57
2022-11-06T00:50:42.699Z,6.45
2022-11-06T00:55:44.902Z,6.03
2022-11-06T01:00:45.669Z,6.07
2022-11-06T01:05:46.532Z,6.72
2022-11-06T01:10:49.024Z,6.03
2022-11-06T01:15:50.077Z,6.68
2022-11-06T01:20:50.842Z,6.25
2022-11-06T01:26:03.190Z,6.22
2022-11-06T01:31:04.826Z,7.07
2022-11-06T01:36:06.960Z,6.38
2022-11-06T01:41:09.852Z,6.70
2022-11-06T01:46:11.082Z,6.57
2022-11-06T01:51:13.156Z,6.32
2022-11-06T01:56:16.318Z,7.55
2022-11-06T02:01:17.164Z,6.75
2022-11-06T02:06:18.297Z,6.53
2022-11-06T02:11:20.467Z,6.82
2022-11-06T02:16:28.247Z,6.85
2022-11-06T02:22:01.102Z,6.95
2022-11-06T02:27:11.455Z,6.65
2022-11-06T02:32:17.053Z,7.20
2022-11-06T02:37:21.832Z,6.47
2022-11-06T02:42:27.501Z,6.97
2022-11-06T02:47:32.847Z,6.30
2022-11-06T02:52:38.201Z,6.22
2022-11-06T02:57:44.778Z,6.63
2022-11-06T03:02:51.917Z,7.13
2022-11-06T03:07:56.223Z,7.18
2022-11-06T03:13:01.626Z,6.93
2022-11-06T03:18:11.161Z,6.80
2022-11-06T03:23:19.146Z,7.55
2022-11-06T03:28:26.608Z,6.85
2022-11-06T03:33:35.123Z,6.50
2022-11-06T03:38:42.603Z,6.05
2022-11-06T03:43:48.983Z,6.78
2022-11-06T03:48:53.417Z,6.93
2022-11-06T03:54:00.280Z,7.10
2022-11-06T03:59:05.505Z,6.88
2022-11-06T04:04:12.880Z,7.22
2022-11-06T04:09:35.206Z,6.78
2022-11-06T04:14:40.567Z,6.82
2022-11-06T04:19:47.773Z,6.97
2022-11-06T04:25:18.541Z,7.38
2022-11-06T04:30:22.984Z,6.53
2022-11-06T04:35:32.593Z,6.60
2022-11-06T04:40:43.059Z,6.80
2022-11-06T04:45:49.583Z,6.55
2022-11-06T04:50:55.128Z,7.10
2022-11-06T04:56:00.863Z,7.28
2022-11-06T05:01:03.123Z,7.55
2022-11-06T05:06:03.970Z,7.60
2022-11-06T05:11:04.842Z,7.35
2022-11-06T05:16:07.587Z,7.47
2022-11-06T05:21:26.360Z,7.57
2022-11-06T05:26:27.193Z,7.72
2022-11-06T05:31:29.346Z,8.38
2022-11-06T05:36:30.219Z,7.38
2022-11-06T05:41:30.999Z,7.93
2022-11-06T05:46:48.311Z,8.63
2022-11-06T05:51:49.803Z,8.82
2022-11-06T05:56:50.755Z,7.68
2022-11-06T06:01:53.079Z,9.30
2022-11-06T06:06:54.133Z,8.77
2022-11-06T06:11:55.534Z,9.68
2022-11-06T06:16:57.667Z,9.75
2022-11-06T06:21:58.444Z,8.95
2022-11-06T06:26:59.335Z,9.45
2022-11-06T06:32:01.675Z,9.52
2022-11-06T06:37:02.559Z,9.82
2022-11-06T06:42:03.459Z,8.85
2022-11-06T06:47:06.697Z,9.30
2022-11-06T06:52:07.890Z,9.18
2022-11-06T06:57:09.409Z,9.00
2022-11-06T07:02:11.962Z,9.52
2022-11-06T07:07:13.312Z,9.68
2022-11-06T07:12:14.554Z,8.82
2022-11-06T07:17:16.914Z,10.60
2022-11-06T07:22:21.684Z,8.95
2022-11-06T07:27:29.114Z,9.18
2022-11-06T07:32:31.390Z,8.70
2022-11-06T07:37:32.193Z,9.60
2022-11-06T07:42:32.997Z,10.55
2022-11-06T07:47:39.328Z,9.38
2022-11-06T07:52:40.199Z,9.70
2022-11-06T07:57:41.452Z,10.07
2022-11-06T08:02:43.813Z,10.52
2022-11-06T08:07:44.699Z,10.35
2022-11-06T08:12:47.311Z,10.80
2022-11-06T08:17:49.512Z,10.85
2022-11-06T08:22:50.394Z,10.75
2022-11-06T08:27:51.178Z,10.30
2022-11-06T08:32:53.731Z,11.00
2022-11-06T08:37:54.679Z,10.90
2022-11-06T08:43:00.282Z,11.32
2022-11-06T08:48:04.323Z,11.15
2022-11-06T08:53:06.637Z,10.38
2022-11-06T08:58:08.104Z,9.75
2022-11-06T09:03:13.389Z,9.55
2022-11-06T09:08:16.082Z,9.30
2022-11-06T09:13:17.680Z,8.82
2022-11-06T09:18:20.018Z,9.02
2022-11-06T09:23:20.829Z,9.43
2022-11-06T09:28:21.713Z,9.02
2022-11-06T09:33:24.074Z,9.02
2022-11-06T09:38:24.953Z,8.63
2022-11-06T09:44:05.009Z,8.18
2022-11-06T09:49:17.827Z,8.02
2022-11-06T09:54:22.785Z,8.10
2022-11-06T09:59:24.042Z,6.65
2022-11-06T10:04:54.173Z,7.35
2022-11-06T10:09:55.340Z,7.60
2022-11-06T10:15:04.641Z,7.30
2022-11-06T10:20:14.352Z,6.32
2022-11-06T10:25:22.080Z,6.40
2022-11-06T10:30:23.070Z,5.22
2022-11-06T10:35:27.946Z,5.60
2022-11-06T10:40:32.752Z,5.25
2022-11-06T10:45:39.860Z,5.07
2022-11-06T10:50:51.288Z,4.88
2022-11-06T10:56:11.309Z,4.28
2022-11-06T11:01:15.545Z,4.00
2022-11-06T11:06:18.662Z,3.45
2022-11-06T11:11:25.583Z,2.90
2022-11-06T11:16:29.303Z,2.72
2022-11-06T11:21:31.504Z,2.85
2022-11-06T11:26:34.784Z,2.75
2022-11-06T11:31:37.230Z,2.78
2022-11-06T11:36:55.667Z,3.03
2022-11-06T11:42:18.115Z,3.05
2022-11-06T11:47:24.437Z,3.08
2022-11-06T11:52:26.658Z,3.70
2022-11-06T11:57:28.606Z,3.75
2022-11-06T12:02:35.823Z,5.30
2022-11-06T12:07:46.278Z,3.13
2022-11-06T12:12:51.001Z,2.78
2022-11-06T12:17:55.528Z,3.40
2022-11-06T12:23:01.106Z,3.22
2022-11-06T12:28:04.871Z,2.22
2022-11-06T12:33:12.977Z,2.00
2022-11-06T12:38:22.160Z,2.17
2022-11-06T12:43:31.164Z,1.70
2022-11-06T12:48:52.169Z,2.63
2022-11-06T12:54:06.727Z,1.95
2022-11-06T12:59:22.644Z,1.90
2022-11-06T13:04:33.662Z,2.00
2022-11-06T13:09:42.916Z,2.10
2022-11-06T13:14:54.895Z,2.03
2022-11-06T13:20:04.033Z,2.83
2022-11-06T13:25:13.515Z,2.30
2022-11-06T13:30:18.028Z,2.10
2022-11-06T13:35:22.826Z,2.80
2022-11-06T13:40:31.001Z,2.95
2022-11-06T13:45:39.005Z,3.17
2022-11-06T13:50:48.584Z,3.83
2022-11-06T13:56:01.609Z,3.90
2022-11-06T14:01:12.893Z,5.00
2022-11-06T14:06:19.835Z,6.25
2022-11-06T14:11:27.895Z,7.07
2022-11-06T14:16:31.681Z,8.50
2022-11-06T14:21:51.829Z,9.32
2022-11-06T14:26:54.116Z,8.95
2022-11-06T14:32:02.226Z,9.55
2022-11-06T14:37:46.769Z,10.38
2022-11-06T14:42:49.283Z,9.32
2022-11-06T14:47:54.424Z,9.50
2022-11-06T14:52:58.032Z,9.18
2022-11-06T14:58:13.547Z,9.07
2022-11-06T15:03:30.459Z,10.20
2022-11-06T15:08:54.469Z,10.73
2022-11-06T15:13:56.748Z,10.90
2022-11-06T15:18:57.775Z,10.55
2022-11-06T15:24:05.585Z,10.52
2022-11-06T15:29:19.160Z,11.50
2022-11-06T15:34:29.202Z,10.68
2022-11-06T15:39:39.223Z,13.13
2022-11-06T15:44:43.828Z,11.15
2022-11-06T15:49:44.690Z,11.15
2022-11-06T15:54:48.776Z,11.90
2022-11-06T15:59:51.476Z,12.57
2022-11-06T16:04:53.321Z,11.02
2022-11-06T16:09:54.513Z,11.23
2022-11-06T16:14:56.729Z,11.98
2022-11-06T16:20:00.227Z,12.52
2022-11-06T16:25:04.041Z,13.18
2022-11-06T16:30:25.515Z,12.82
2022-11-06T16:35:35.343Z,12.80
2022-11-06T16:40:50.547Z,13.95
2022-11-06T16:45:58.479Z,14.65
2022-11-06T16:51:01.709Z,14.13
2022-11-06T16:56:04.447Z,14.60
2022-11-06T17:01:07.938Z,14.25
2022-11-06T17:06:21.293Z,14.15
2022-11-06T17:11:23.306Z,13.65
2022-11-06T17:16:27.413Z,16.85
2022-11-06T17:21:28.266Z,13.95
2022-11-06T17:26:31.583Z,15.45
2022-11-06T17:31:33.884Z,15.43
2022-11-06T17:36:36.927Z,14.82
2022-11-06T17:41:37.767Z,16.25
2022-11-06T17:46:42.325Z,14.65
2022-11-06T17:51:53.485Z,15.43
2022-11-06T17:56:55.017Z,16.17
2022-11-06T18:01:57.508Z,15.65
2022-11-06T18:06:58.971Z,16.20
2022-11-06T18:12:00.248Z,18.02
2022-11-06T18:17:02.622Z,17.33
2022-11-06T18:22:06.740Z,17.40
2022-11-06T18:27:08.040Z,17.48
2022-11-06T18:32:10.299Z,17.83
2022-11-06T18:37:11.166Z,17.50
2022-11-06T18:42:12.007Z,16.52
2022-11-06T18:47:15.201Z,16.80
2022-11-06T18:52:32.534Z,15.90
2022-11-06T18:57:36.943Z,17.45
2022-11-06T19:02:39.167Z,16.70
2022-11-06T19:07:40.063Z,17.45
2022-11-06T19:12:41.361Z,16.88
2022-11-06T19:17:43.671Z,15.15
2022-11-06T19:22:44.505Z,16.92
2022-11-06T19:27:45.364Z,16.27
2022-11-06T19:32:47.577Z,15.93
2022-11-06T19:37:48.395Z,15.20
2022-11-06T19:42:49.288Z,14.05
2022-11-06T19:47:52.030Z,15.45
2022-11-06T19:52:53.602Z,13.82
2022-11-06T19:57:54.544Z,14.88
2022-11-06T20:02:56.724Z,14.52
2022-11-06T20:07:57.612Z,14.27
2022-11-06T20:12:58.483Z,14.45
2022-11-06T20:18:00.736Z,14.15
2022-11-06T20:23:01.588Z,13.55
2022-11-06T20:28:02.392Z,12.45
2022-11-06T20:33:04.676Z,12.82
2022-11-06T20:38:05.872Z,12.10
2022-11-06T20:43:06.804Z,13.32
2022-11-06T20:48:10.648Z,12.02
2022-11-06T20:53:11.823Z,12.38
2022-11-06T20:58:12.759Z,13.10
2022-11-06T21:03:15.276Z,13.02
2022-11-06T21:08:16.317Z,13.38
2022-11-06T21:13:17.207Z,12.98
2022-11-06T21:18:19.375Z,13.30
2022-11-06T21:23:20.569Z,12.95
2022-11-06T21:28:21.606Z,11.82
2022-11-06T21:33:23.728Z,13.38
2022-11-06T21:38:24.666Z,12.25
2022-11-06T21:43:26.933Z,12.68
2022-11-06T21:48:45.114Z,11.55
2022-11-06T21:54:05.031Z,10.90
2022-11-06T21:59:08.391Z,11.40
2022-11-06T22:04:11.440Z,11.85
2022-11-06T22:09:14.305Z,11.50
2022-11-06T22:14:16.858Z,10.77
2022-11-06T22:19:19.173Z,10.25
2022-11-06T22:24:20.016Z,10.27
2022-11-06T22:29:20.833Z,9.90
2022-11-06T22:34:22.974Z,10.02
2022-11-06T22:39:23.829Z,9.90
2022-11-06T22:44:24.705Z,9.57
2022-11-06T22:49:26.922Z,9.23
2022-11-06T22:54:27.716Z,8.93
2022-11-06T22:59:28.514Z,9.50
2022-11-06T23:04:30.661Z,9.40
2022-11-06T23:09:31.459Z,9.60
2022-11-06T23:14:32.335Z,8.55
2022-11-06T23:19:35.035Z,10.02
2022-11-06T23:24:35.860Z,8.45
2022-11-06T23:29:36.653Z,9.57
2022-11-06T23:34:38.897Z,8.43
2022-11-06T23:39:39.670Z,8.98
2022-11-06T23:44:58.128Z,9.05
2022-11-06T23:50:00.741Z,9.50
2022-11-06T23:55:01.688Z,9.10
